sensor_id;sensor_type;location;lat;lon;timestamp;P1;durP1;ratioP1;P2;durP2;ratioP2
29934;SDS011;19905;53.370;-6.314;2023-08-08T00:02:20;8.90;;;4.28;;
29934;SDS011;19905;53.370;-6.314;2023-08-08T00:04:49;8.55;;;3.95;;
29934;SDS011;19905;53.370;-6.314;2023-08-08T00:07:17;5.75;;;3.88;;
29934;SDS011;19905;53.370;-6.314;2023-08-08T00:09:46;6.90;;;3.38;;
29934;SDS011;19905;53.370;-6.314;2023-08-08T00:12:16;8.82;;;3.25;;
29934;SDS011;19905;53.370;-6.314;2023-08-08T00:14:44;9.27;;;3.40;;
29934;SDS011;19905;53.370;-6.314;2023-08-08T00:17:13;6.00;;;2.88;;
29934;SDS011;19905;53.370;-6.314;2023-08-08T00:19:42;7.38;;;3.10;;
29934;SDS011;19905;53.370;-6.314;2023-08-08T00:22:11;6.30;;;3.22;;
29934;SDS011;19905;53.370;-6.314;2023-08-08T00:24:40;7.90;;;3.17;;
29934;SDS011;19905;53.370;-6.314;2023-08-08T00:27:08;7.40;;;3.03;;
29934;SDS011;19905;53.370;-6.314;2023-08-08T00:29:38;5.60;;;2.95;;
29934;SDS011;19905;53.370;-6.314;2023-08-08T00:32:07;7.63;;;3.13;;
29934;SDS011;19905;53.370;-6.314;2023-08-08T00:34:35;8.50;;;3.60;;
29934;SDS011;19905;53.370;-6.314;2023-08-08T00:37:04;7.80;;;3.13;;
29934;SDS011;19905;53.370;-6.314;2023-08-08T00:39:33;9.88;;;3.28;;
29934;SDS011;19905;53.370;-6.314;2023-08-08T00:42:02;7.30;;;3.38;;
29934;SDS011;19905;53.370;-6.314;2023-08-08T00:44:31;10.45;;;3.40;;
29934;SDS011;19905;53.370;-6.314;2023-08-08T00:47:02;7.63;;;2.83;;
29934;SDS011;19905;53.370;-6.314;2023-08-08T00:49:31;5.85;;;3.50;;
29934;SDS011;19905;53.370;-6.314;2023-08-08T00:51:59;6.05;;;3.05;;
29934;SDS011;19905;53.370;-6.314;2023-08-08T00:54:28;5.57;;;3.00;;
29934;SDS011;19905;53.370;-6.314;2023-08-08T00:56:57;7.20;;;3.38;;
29934;SDS011;19905;53.370;-6.314;2023-08-08T00:59:27;7.32;;;3.00;;
29934;SDS011;19905;53.370;-6.314;2023-08-08T01:01:56;9.25;;;3.13;;
29934;SDS011;19905;53.370;-6.314;2023-08-08T01:04:27;8.32;;;3.00;;
29934;SDS011;19905;53.370;-6.314;2023-08-08T01:06:58;7.13;;;3.20;;
29934;SDS011;19905;53.370;-6.314;2023-08-08T01:09:36;4.13;;;2.85;;
29934;SDS011;19905;53.370;-6.314;2023-08-08T01:12:08;7.55;;;2.83;;
29934;SDS011;19905;53.370;-6.314;2023-08-08T01:14:42;5.65;;;3.00;;
29934;SDS011;19905;53.370;-6.314;2023-08-08T01:17:12;6.93;;;2.80;;
29934;SDS011;19905;53.370;-6.314;2023-08-08T01:19:43;6.35;;;2.78;;
29934;SDS011;19905;53.370;-6.314;2023-08-08T01:22:14;9.32;;;3.35;;
29934;SDS011;19905;53.370;-6.314;2023-08-08T01:24:53;10.15;;;3.45;;
29934;SDS011;19905;53.370;-6.314;2023-08-08T01:27:23;7.35;;;3.40;;
29934;SDS011;19905;53.370;-6.314;2023-08-08T01:29:52;8.18;;;3.00;;
29934;SDS011;19905;53.370;-6.314;2023-08-08T01:32:21;9.48;;;3.15;;
29934;SDS011;19905;53.370;-6.314;2023-08-08T01:34:51;8.82;;;3.58;;
29934;SDS011;19905;53.370;-6.314;2023-08-08T01:37:20;6.70;;;3.35;;
29934;SDS011;19905;53.370;-6.314;2023-08-08T01:40:00;5.75;;;2.92;;
29934;SDS011;19905;53.370;-6.314;2023-08-08T01:42:29;9.70;;;3.08;;
29934;SDS011;19905;53.370;-6.314;2023-08-08T01:44:59;5.40;;;3.13;;
29934;SDS011;19905;53.370;-6.314;2023-08-08T01:47:29;5.63;;;2.80;;
29934;SDS011;19905;53.370;-6.314;2023-08-08T01:49:59;5.75;;;3.00;;
29934;SDS011;19905;53.370;-6.314;2023-08-08T01:52:28;7.18;;;2.95;;
29934;SDS011;19905;53.370;-6.314;2023-08-08T01:54:57;6.63;;;2.83;;
29934;SDS011;19905;53.370;-6.314;2023-08-08T01:57:27;7.15;;;3.33;;
29934;SDS011;19905;53.370;-6.314;2023-08-08T01:59:56;8.30;;;3.28;;
29934;SDS011;19905;53.370;-6.314;2023-08-08T02:02:24;5.07;;;2.85;;
29934;SDS011;19905;53.370;-6.314;2023-08-08T02:04:54;8.63;;;3.28;;
29934;SDS011;19905;53.370;-6.314;2023-08-08T02:07:22;12.43;;;3.20;;
29934;SDS011;19905;53.370;-6.314;2023-08-08T02:09:51;6.13;;;3.22;;
29934;SDS011;19905;53.370;-6.314;2023-08-08T02:12:20;7.53;;;3.15;;
29934;SDS011;19905;53.370;-6.314;2023-08-08T02:14:50;10.52;;;3.25;;
29934;SDS011;19905;53.370;-6.314;2023-08-08T02:17:18;8.65;;;3.17;;
29934;SDS011;19905;53.370;-6.314;2023-08-08T02:19:47;7.25;;;3.33;;
29934;SDS011;19905;53.370;-6.314;2023-08-08T02:22:16;7.75;;;3.33;;
29934;SDS011;19905;53.370;-6.314;2023-08-08T02:24:45;7.22;;;3.42;;
29934;SDS011;19905;53.370;-6.314;2023-08-08T02:27:13;9.27;;;3.17;;
29934;SDS011;19905;53.370;-6.314;2023-08-08T02:29:42;6.40;;;3.30;;
29934;SDS011;19905;53.370;-6.314;2023-08-08T02:32:12;5.88;;;3.13;;
29934;SDS011;19905;53.370;-6.314;2023-08-08T02:34:41;8.98;;;3.40;;
29934;SDS011;19905;53.370;-6.314;2023-08-08T02:37:10;10.05;;;3.35;;
29934;SDS011;19905;53.370;-6.314;2023-08-08T02:39:38;7.20;;;3.00;;
29934;SDS011;19905;53.370;-6.314;2023-08-08T02:42:07;6.70;;;3.55;;
29934;SDS011;19905;53.370;-6.314;2023-08-08T02:44:35;8.13;;;3.25;;
29934;SDS011;19905;53.370;-6.314;2023-08-08T02:47:04;9.25;;;3.08;;
29934;SDS011;19905;53.370;-6.314;2023-08-08T02:49:34;8.45;;;3.58;;
29934;SDS011;19905;53.370;-6.314;2023-08-08T02:52:03;9.57;;;3.25;;
29934;SDS011;19905;53.370;-6.314;2023-08-08T02:54:32;7.78;;;3.35;;
29934;SDS011;19905;53.370;-6.314;2023-08-08T02:57:00;12.30;;;3.42;;
29934;SDS011;19905;53.370;-6.314;2023-08-08T02:59:29;9.43;;;3.70;;
29934;SDS011;19905;53.370;-6.314;2023-08-08T03:01:58;8.13;;;3.30;;
29934;SDS011;19905;53.370;-6.314;2023-08-08T03:04:27;10.00;;;3.03;;
29934;SDS011;19905;53.370;-6.314;2023-08-08T03:06:58;6.88;;;3.17;;
29934;SDS011;19905;53.370;-6.314;2023-08-08T03:09:28;10.35;;;3.30;;
29934;SDS011;19905;53.370;-6.314;2023-08-08T03:11:57;7.85;;;3.08;;
29934;SDS011;19905;53.370;-6.314;2023-08-08T03:14:27;7.75;;;3.30;;
29934;SDS011;19905;53.370;-6.314;2023-08-08T03:16:55;9.07;;;3.30;;
29934;SDS011;19905;53.370;-6.314;2023-08-08T03:19:24;8.60;;;3.55;;
29934;SDS011;19905;53.370;-6.314;2023-08-08T03:21:53;9.90;;;3.60;;
29934;SDS011;19905;53.370;-6.314;2023-08-08T03:24:23;6.10;;;3.08;;
29934;SDS011;19905;53.370;-6.314;2023-08-08T03:26:52;8.98;;;3.50;;
29934;SDS011;19905;53.370;-6.314;2023-08-08T03:29:20;5.80;;;3.40;;
29934;SDS011;19905;53.370;-6.314;2023-08-08T03:31:49;7.90;;;3.55;;
29934;SDS011;19905;53.370;-6.314;2023-08-08T03:34:18;9.43;;;3.40;;
29934;SDS011;19905;53.370;-6.314;2023-08-08T03:36:47;7.45;;;3.40;;
29934;SDS011;19905;53.370;-6.314;2023-08-08T03:39:16;7.60;;;3.60;;
29934;SDS011;19905;53.370;-6.314;2023-08-08T03:41:46;5.95;;;3.33;;
29934;SDS011;19905;53.370;-6.314;2023-08-08T03:44:15;8.55;;;3.60;;
29934;SDS011;19905;53.370;-6.314;2023-08-08T03:46:43;8.80;;;3.70;;
29934;SDS011;19905;53.370;-6.314;2023-08-08T03:49:12;7.22;;;3.70;;
29934;SDS011;19905;53.370;-6.314;2023-08-08T03:51:41;6.03;;;3.80;;
29934;SDS011;19905;53.370;-6.314;2023-08-08T03:54:09;7.03;;;3.45;;
29934;SDS011;19905;53.370;-6.314;2023-08-08T03:56:38;10.38;;;3.63;;
29934;SDS011;19905;53.370;-6.314;2023-08-08T03:59:08;7.35;;;3.70;;
29934;SDS011;19905;53.370;-6.314;2023-08-08T04:01:37;7.22;;;3.88;;
29934;SDS011;19905;53.370;-6.314;2023-08-08T04:04:05;7.45;;;3.53;;
29934;SDS011;19905;53.370;-6.314;2023-08-08T04:06:34;5.28;;;3.63;;
29934;SDS011;19905;53.370;-6.314;2023-08-08T04:09:03;6.25;;;3.50;;
29934;SDS011;19905;53.370;-6.314;2023-08-08T04:11:31;7.47;;;3.70;;
29934;SDS011;19905;53.370;-6.314;2023-08-08T04:14:02;8.80;;;3.38;;
29934;SDS011;19905;53.370;-6.314;2023-08-08T04:16:33;8.75;;;3.83;;
29934;SDS011;19905;53.370;-6.314;2023-08-08T04:19:02;7.25;;;3.60;;
29934;SDS011;19905;53.370;-6.314;2023-08-08T04:21:31;8.38;;;3.97;;
29934;SDS011;19905;53.370;-6.314;2023-08-08T04:24:00;6.78;;;4.20;;
29934;SDS011;19905;53.370;-6.314;2023-08-08T04:26:30;6.28;;;3.60;;
29934;SDS011;19905;53.370;-6.314;2023-08-08T04:29:02;9.88;;;3.92;;
29934;SDS011;19905;53.370;-6.314;2023-08-08T04:31:31;8.65;;;4.05;;
29934;SDS011;19905;53.370;-6.314;2023-08-08T04:34:01;6.93;;;3.70;;
29934;SDS011;19905;53.370;-6.314;2023-08-08T04:36:30;7.97;;;3.85;;
29934;SDS011;19905;53.370;-6.314;2023-08-08T04:38:58;8.50;;;4.05;;
29934;SDS011;19905;53.370;-6.314;2023-08-08T04:41:27;7.90;;;4.18;;
29934;SDS011;19905;53.370;-6.314;2023-08-08T04:43:56;8.35;;;3.90;;
29934;SDS011;19905;53.370;-6.314;2023-08-08T04:46:26;9.52;;;4.40;;
29934;SDS011;19905;53.370;-6.314;2023-08-08T04:48:54;7.80;;;3.80;;
29934;SDS011;19905;53.370;-6.314;2023-08-08T04:51:26;10.32;;;4.10;;
29934;SDS011;19905;53.370;-6.314;2023-08-08T04:53:54;6.55;;;4.00;;
29934;SDS011;19905;53.370;-6.314;2023-08-08T04:56:23;6.10;;;3.92;;
29934;SDS011;19905;53.370;-6.314;2023-08-08T04:58:55;6.88;;;3.92;;
29934;SDS011;19905;53.370;-6.314;2023-08-08T05:01:23;8.32;;;4.38;;
29934;SDS011;19905;53.370;-6.314;2023-08-08T05:03:52;5.35;;;3.88;;
29934;SDS011;19905;53.370;-6.314;2023-08-08T05:06:22;7.97;;;3.90;;
29934;SDS011;19905;53.370;-6.314;2023-08-08T05:08:53;7.85;;;4.32;;
29934;SDS011;19905;53.370;-6.314;2023-08-08T05:11:26;9.73;;;4.13;;
29934;SDS011;19905;53.370;-6.314;2023-08-08T05:13:55;8.20;;;4.00;;
29934;SDS011;19905;53.370;-6.314;2023-08-08T05:16:24;8.65;;;4.25;;
29934;SDS011;19905;53.370;-6.314;2023-08-08T05:18:52;6.78;;;3.97;;
29934;SDS011;19905;53.370;-6.314;2023-08-08T05:21:21;10.18;;;4.05;;
29934;SDS011;19905;53.370;-6.314;2023-08-08T05:23:52;6.85;;;4.25;;
29934;SDS011;19905;53.370;-6.314;2023-08-08T05:26:21;9.40;;;4.38;;
29934;SDS011;19905;53.370;-6.314;2023-08-08T05:28:49;8.65;;;4.13;;
29934;SDS011;19905;53.370;-6.314;2023-08-08T05:31:18;8.73;;;4.43;;
29934;SDS011;19905;53.370;-6.314;2023-08-08T05:33:48;8.20;;;4.28;;
29934;SDS011;19905;53.370;-6.314;2023-08-08T05:36:17;9.68;;;4.32;;
29934;SDS011;19905;53.370;-6.314;2023-08-08T05:38:46;10.40;;;4.40;;
29934;SDS011;19905;53.370;-6.314;2023-08-08T05:41:16;11.27;;;4.72;;
29934;SDS011;19905;53.370;-6.314;2023-08-08T05:43:45;12.98;;;5.00;;
29934;SDS011;19905;53.370;-6.314;2023-08-08T05:46:13;7.80;;;4.90;;
29934;SDS011;19905;53.370;-6.314;2023-08-08T05:48:42;13.05;;;5.13;;
29934;SDS011;19905;53.370;-6.314;2023-08-08T05:51:13;9.15;;;5.00;;
29934;SDS011;19905;53.370;-6.314;2023-08-08T05:53:41;9.00;;;4.78;;
29934;SDS011;19905;53.370;-6.314;2023-08-08T05:56:11;8.55;;;4.70;;
29934;SDS011;19905;53.370;-6.314;2023-08-08T05:58:41;9.35;;;5.05;;
29934;SDS011;19905;53.370;-6.314;2023-08-08T06:01:11;10.15;;;5.28;;
29934;SDS011;19905;53.370;-6.314;2023-08-08T06:03:40;12.02;;;5.45;;
29934;SDS011;19905;53.370;-6.314;2023-08-08T06:06:09;8.70;;;5.20;;
29934;SDS011;19905;53.370;-6.314;2023-08-08T06:08:37;9.63;;;5.38;;
29934;SDS011;19905;53.370;-6.314;2023-08-08T06:11:06;9.43;;;5.35;;
29934;SDS011;19905;53.370;-6.314;2023-08-08T06:13:35;8.82;;;5.43;;
29934;SDS011;19905;53.370;-6.314;2023-08-08T06:16:08;11.52;;;5.10;;
29934;SDS011;19905;53.370;-6.314;2023-08-08T06:18:36;9.23;;;4.90;;
29934;SDS011;19905;53.370;-6.314;2023-08-08T06:21:11;9.52;;;5.30;;
29934;SDS011;19905;53.370;-6.314;2023-08-08T06:23:48;9.65;;;5.00;;
29934;SDS011;19905;53.370;-6.314;2023-08-08T06:26:25;10.80;;;5.57;;
29934;SDS011;19905;53.370;-6.314;2023-08-08T06:31:29;12.43;;;5.30;;
29934;SDS011;19905;53.370;-6.314;2023-08-08T06:33:59;8.68;;;5.20;;
29934;SDS011;19905;53.370;-6.314;2023-08-08T06:36:29;9.48;;;4.95;;
29934;SDS011;19905;53.370;-6.314;2023-08-08T06:38:58;11.75;;;4.75;;
29934;SDS011;19905;53.370;-6.314;2023-08-08T06:41:29;7.85;;;4.20;;
29934;SDS011;19905;53.370;-6.314;2023-08-08T06:44:13;8.35;;;4.10;;
29934;SDS011;19905;53.370;-6.314;2023-08-08T06:46:49;6.03;;;3.60;;
29934;SDS011;19905;53.370;-6.314;2023-08-08T06:49:18;7.75;;;3.70;;
29934;SDS011;19905;53.370;-6.314;2023-08-08T06:51:50;6.75;;;3.63;;
29934;SDS011;19905;53.370;-6.314;2023-08-08T06:54:26;9.40;;;3.70;;
29934;SDS011;19905;53.370;-6.314;2023-08-08T06:56:56;10.73;;;3.90;;
29934;SDS011;19905;53.370;-6.314;2023-08-08T06:59:27;7.72;;;3.60;;
29934;SDS011;19905;53.370;-6.314;2023-08-08T07:02:00;7.40;;;3.85;;
29934;SDS011;19905;53.370;-6.314;2023-08-08T07:04:30;9.13;;;3.92;;
29934;SDS011;19905;53.370;-6.314;2023-08-08T07:07:08;5.65;;;3.67;;
29934;SDS011;19905;53.370;-6.314;2023-08-08T07:09:39;4.72;;;3.05;;
29934;SDS011;19905;53.370;-6.314;2023-08-08T07:12:10;3.85;;;2.67;;
29934;SDS011;19905;53.370;-6.314;2023-08-08T07:14:43;7.90;;;2.80;;
29934;SDS011;19905;53.370;-6.314;2023-08-08T07:17:17;3.47;;;2.50;;
29934;SDS011;19905;53.370;-6.314;2023-08-08T07:22:41;5.30;;;2.50;;
29934;SDS011;19905;53.370;-6.314;2023-08-08T07:25:09;6.45;;;2.50;;
29934;SDS011;19905;53.370;-6.314;2023-08-08T07:27:46;5.38;;;2.40;;
29934;SDS011;19905;53.370;-6.314;2023-08-08T07:30:15;5.72;;;2.20;;
29934;SDS011;19905;53.370;-6.314;2023-08-08T07:32:47;4.97;;;2.20;;
29934;SDS011;19905;53.370;-6.314;2023-08-08T07:37:58;3.53;;;2.25;;
29934;SDS011;19905;53.370;-6.314;2023-08-08T07:40:31;5.05;;;1.95;;
29934;SDS011;19905;53.370;-6.314;2023-08-08T07:43:19;5.25;;;2.22;;
29934;SDS011;19905;53.370;-6.314;2023-08-08T07:45:49;4.13;;;1.85;;
29934;SDS011;19905;53.370;-6.314;2023-08-08T07:50:56;6.97;;;2.30;;
29934;SDS011;19905;53.370;-6.314;2023-08-08T07:53:30;5.72;;;2.10;;
29934;SDS011;19905;53.370;-6.314;2023-08-08T07:56:05;4.32;;;2.20;;
29934;SDS011;19905;53.370;-6.314;2023-08-08T07:58:35;6.78;;;2.22;;
29934;SDS011;19905;53.370;-6.314;2023-08-08T08:01:07;5.57;;;2.35;;
29934;SDS011;19905;53.370;-6.314;2023-08-08T08:03:39;3.42;;;1.92;;
29934;SDS011;19905;53.370;-6.314;2023-08-08T08:06:09;3.30;;;1.80;;
29934;SDS011;19905;53.370;-6.314;2023-08-08T08:08:37;3.90;;;2.20;;
29934;SDS011;19905;53.370;-6.314;2023-08-08T08:11:14;5.40;;;2.00;;
29934;SDS011;19905;53.370;-6.314;2023-08-08T08:13:43;4.32;;;1.83;;
29934;SDS011;19905;53.370;-6.314;2023-08-08T08:16:11;8.88;;;2.08;;
29934;SDS011;19905;53.370;-6.314;2023-08-08T08:18:43;6.20;;;2.20;;
29934;SDS011;19905;53.370;-6.314;2023-08-08T08:21:15;4.82;;;2.20;;
29934;SDS011;19905;53.370;-6.314;2023-08-08T08:23:45;5.40;;;2.10;;
29934;SDS011;19905;53.370;-6.314;2023-08-08T08:26:16;5.65;;;2.05;;
29934;SDS011;19905;53.370;-6.314;2023-08-08T08:28:45;5.45;;;2.20;;
29934;SDS011;19905;53.370;-6.314;2023-08-08T08:31:14;4.47;;;2.05;;
29934;SDS011;19905;53.370;-6.314;2023-08-08T08:33:49;4.50;;;1.90;;
29934;SDS011;19905;53.370;-6.314;2023-08-08T08:36:17;4.65;;;2.00;;
29934;SDS011;19905;53.370;-6.314;2023-08-08T08:38:51;2.92;;;1.80;;
29934;SDS011;19905;53.370;-6.314;2023-08-08T08:41:19;5.30;;;1.95;;
29934;SDS011;19905;53.370;-6.314;2023-08-08T08:43:53;3.83;;;1.83;;
29934;SDS011;19905;53.370;-6.314;2023-08-08T08:46:22;3.75;;;1.70;;
29934;SDS011;19905;53.370;-6.314;2023-08-08T08:48:56;3.65;;;1.60;;
29934;SDS011;19905;53.370;-6.314;2023-08-08T08:51:29;4.35;;;1.65;;
29934;SDS011;19905;53.370;-6.314;2023-08-08T08:53:58;4.95;;;1.50;;
29934;SDS011;19905;53.370;-6.314;2023-08-08T08:56:27;3.42;;;1.60;;
29934;SDS011;19905;53.370;-6.314;2023-08-08T08:58:56;3.78;;;1.63;;
29934;SDS011;19905;53.370;-6.314;2023-08-08T09:01:25;4.35;;;1.77;;
29934;SDS011;19905;53.370;-6.314;2023-08-08T09:03:56;2.95;;;1.45;;
29934;SDS011;19905;53.370;-6.314;2023-08-08T09:06:25;4.85;;;1.70;;
29934;SDS011;19905;53.370;-6.314;2023-08-08T09:08:56;4.00;;;1.70;;
29934;SDS011;19905;53.370;-6.314;2023-08-08T09:11:42;4.60;;;1.80;;
29934;SDS011;19905;53.370;-6.314;2023-08-08T09:14:18;6.50;;;1.85;;
29934;SDS011;19905;53.370;-6.314;2023-08-08T09:16:49;3.85;;;1.90;;
29934;SDS011;19905;53.370;-6.314;2023-08-08T09:19:21;5.47;;;1.70;;
29934;SDS011;19905;53.370;-6.314;2023-08-08T09:21:51;3.13;;;1.58;;
29934;SDS011;19905;53.370;-6.314;2023-08-08T09:24:20;3.97;;;1.88;;
29934;SDS011;19905;53.370;-6.314;2023-08-08T09:26:49;3.05;;;1.60;;
29934;SDS011;19905;53.370;-6.314;2023-08-08T09:29:18;4.13;;;1.65;;
29934;SDS011;19905;53.370;-6.314;2023-08-08T09:31:50;3.28;;;1.90;;
29934;SDS011;19905;53.370;-6.314;2023-08-08T09:34:23;3.13;;;1.80;;
29934;SDS011;19905;53.370;-6.314;2023-08-08T09:36:54;4.22;;;1.70;;
29934;SDS011;19905;53.370;-6.314;2023-08-08T09:39:24;3.65;;;1.70;;
29934;SDS011;19905;53.370;-6.314;2023-08-08T09:41:52;5.70;;;2.00;;
29934;SDS011;19905;53.370;-6.314;2023-08-08T09:44:23;3.78;;;2.05;;
29934;SDS011;19905;53.370;-6.314;2023-08-08T09:46:54;6.03;;;1.60;;
29934;SDS011;19905;53.370;-6.314;2023-08-08T09:49:23;4.35;;;1.70;;
29934;SDS011;19905;53.370;-6.314;2023-08-08T09:51:54;3.33;;;1.70;;
29934;SDS011;19905;53.370;-6.314;2023-08-08T09:54:23;5.40;;;1.70;;
29934;SDS011;19905;53.370;-6.314;2023-08-08T09:56:54;2.95;;;1.60;;
29934;SDS011;19905;53.370;-6.314;2023-08-08T09:59:30;5.13;;;1.55;;
29934;SDS011;19905;53.370;-6.314;2023-08-08T10:01:59;3.55;;;1.58;;
29934;SDS011;19905;53.370;-6.314;2023-08-08T10:04:29;4.95;;;1.80;;
29934;SDS011;19905;53.370;-6.314;2023-08-08T10:07:03;5.05;;;1.90;;
29934;SDS011;19905;53.370;-6.314;2023-08-08T10:09:32;3.33;;;1.67;;
29934;SDS011;19905;53.370;-6.314;2023-08-08T10:12:01;3.15;;;1.55;;
29934;SDS011;19905;53.370;-6.314;2023-08-08T10:14:30;2.45;;;1.40;;
29934;SDS011;19905;53.370;-6.314;2023-08-08T10:17:01;4.00;;;1.38;;
29934;SDS011;19905;53.370;-6.314;2023-08-08T10:19:31;4.57;;;1.73;;
29934;SDS011;19905;53.370;-6.314;2023-08-08T10:22:02;4.50;;;1.52;;
29934;SDS011;19905;53.370;-6.314;2023-08-08T10:24:35;5.63;;;1.65;;
29934;SDS011;19905;53.370;-6.314;2023-08-08T10:27:04;5.70;;;1.70;;
29934;SDS011;19905;53.370;-6.314;2023-08-08T10:29:33;3.47;;;1.48;;
29934;SDS011;19905;53.370;-6.314;2023-08-08T10:32:06;2.20;;;1.20;;
29934;SDS011;19905;53.370;-6.314;2023-08-08T10:34:39;5.20;;;1.52;;
29934;SDS011;19905;53.370;-6.314;2023-08-08T10:37:11;3.13;;;1.30;;
29934;SDS011;19905;53.370;-6.314;2023-08-08T10:39:51;4.45;;;1.60;;
29934;SDS011;19905;53.370;-6.314;2023-08-08T10:42:22;3.70;;;1.50;;
29934;SDS011;19905;53.370;-6.314;2023-08-08T10:44:52;5.78;;;1.80;;
29934;SDS011;19905;53.370;-6.314;2023-08-08T10:47:24;3.35;;;1.40;;
29934;SDS011;19905;53.370;-6.314;2023-08-08T10:50:03;4.18;;;1.50;;
29934;SDS011;19905;53.370;-6.314;2023-08-08T10:52:49;4.05;;;1.55;;
29934;SDS011;19905;53.370;-6.314;2023-08-08T10:55:19;3.63;;;1.45;;
29934;SDS011;19905;53.370;-6.314;2023-08-08T10:57:55;5.13;;;1.60;;
29934;SDS011;19905;53.370;-6.314;2023-08-08T11:00:27;3.42;;;1.50;;
29934;SDS011;19905;53.370;-6.314;2023-08-08T11:03:00;3.03;;;1.48;;
29934;SDS011;19905;53.370;-6.314;2023-08-08T11:05:32;3.90;;;1.42;;
29934;SDS011;19905;53.370;-6.314;2023-08-08T11:08:06;4.63;;;1.60;;
29934;SDS011;19905;53.370;-6.314;2023-08-08T11:10:35;4.93;;;2.13;;
29934;SDS011;19905;53.370;-6.314;2023-08-08T11:13:05;5.07;;;1.60;;
29934;SDS011;19905;53.370;-6.314;2023-08-08T11:15:35;7.03;;;1.65;;
29934;SDS011;19905;53.370;-6.314;2023-08-08T11:18:05;5.93;;;1.70;;
29934;SDS011;19905;53.370;-6.314;2023-08-08T11:20:36;2.85;;;1.60;;
29934;SDS011;19905;53.370;-6.314;2023-08-08T11:23:09;2.53;;;1.38;;
29934;SDS011;19905;53.370;-6.314;2023-08-08T11:25:41;3.67;;;1.58;;
29934;SDS011;19905;53.370;-6.314;2023-08-08T11:28:11;3.90;;;1.65;;
29934;SDS011;19905;53.370;-6.314;2023-08-08T11:30:41;4.63;;;1.90;;
29934;SDS011;19905;53.370;-6.314;2023-08-08T11:33:12;2.85;;;1.70;;
29934;SDS011;19905;53.370;-6.314;2023-08-08T11:35:44;4.85;;;1.77;;
29934;SDS011;19905;53.370;-6.314;2023-08-08T11:38:17;3.28;;;1.67;;
29934;SDS011;19905;53.370;-6.314;2023-08-08T11:40:46;2.63;;;1.60;;
29934;SDS011;19905;53.370;-6.314;2023-08-08T11:43:16;3.58;;;1.80;;
29934;SDS011;19905;53.370;-6.314;2023-08-08T11:45:45;4.70;;;1.88;;
29934;SDS011;19905;53.370;-6.314;2023-08-08T11:48:13;5.95;;;1.92;;
29934;SDS011;19905;53.370;-6.314;2023-08-08T11:50:42;6.88;;;2.03;;
29934;SDS011;19905;53.370;-6.314;2023-08-08T11:53:13;5.93;;;2.00;;
29934;SDS011;19905;53.370;-6.314;2023-08-08T11:55:46;4.13;;;1.90;;
29934;SDS011;19905;53.370;-6.314;2023-08-08T11:58:15;3.72;;;2.20;;
29934;SDS011;19905;53.370;-6.314;2023-08-08T12:00:45;5.82;;;2.05;;
29934;SDS011;19905;53.370;-6.314;2023-08-08T12:03:13;7.72;;;2.50;;
29934;SDS011;19905;53.370;-6.314;2023-08-08T12:05:45;5.60;;;2.60;;
29934;SDS011;19905;53.370;-6.314;2023-08-08T12:08:17;7.22;;;2.75;;
29934;SDS011;19905;53.370;-6.314;2023-08-08T12:10:50;7.30;;;2.55;;
29934;SDS011;19905;53.370;-6.314;2023-08-08T12:13:25;5.10;;;2.65;;
29934;SDS011;19905;53.370;-6.314;2023-08-08T12:15:54;6.30;;;2.50;;
29934;SDS011;19905;53.370;-6.314;2023-08-08T12:18:30;4.82;;;3.00;;
29934;SDS011;19905;53.370;-6.314;2023-08-08T12:20:59;6.75;;;2.63;;
29934;SDS011;19905;53.370;-6.314;2023-08-08T12:23:28;8.68;;;3.05;;
29934;SDS011;19905;53.370;-6.314;2023-08-08T12:25:59;6.55;;;3.30;;
29934;SDS011;19905;53.370;-6.314;2023-08-08T12:28:33;6.43;;;3.33;;
29934;SDS011;19905;53.370;-6.314;2023-08-08T12:31:03;4.78;;;2.97;;
29934;SDS011;19905;53.370;-6.314;2023-08-08T12:33:31;6.70;;;3.30;;
29934;SDS011;19905;53.370;-6.314;2023-08-08T12:36:02;7.20;;;3.30;;
29934;SDS011;19905;53.370;-6.314;2023-08-08T12:38:32;6.55;;;3.40;;
29934;SDS011;19905;53.370;-6.314;2023-08-08T12:41:02;7.55;;;3.30;;
29934;SDS011;19905;53.370;-6.314;2023-08-08T12:43:31;7.75;;;3.20;;
29934;SDS011;19905;53.370;-6.314;2023-08-08T12:46:00;5.00;;;3.30;;
29934;SDS011;19905;53.370;-6.314;2023-08-08T12:48:29;7.03;;;3.30;;
29934;SDS011;19905;53.370;-6.314;2023-08-08T12:50:57;6.72;;;3.25;;
29934;SDS011;19905;53.370;-6.314;2023-08-08T12:53:27;6.88;;;3.20;;
29934;SDS011;19905;53.370;-6.314;2023-08-08T12:55:56;5.18;;;3.53;;
29934;SDS011;19905;53.370;-6.314;2023-08-08T12:58:27;6.90;;;3.13;;
29934;SDS011;19905;53.370;-6.314;2023-08-08T13:00:59;7.72;;;3.50;;
29934;SDS011;19905;53.370;-6.314;2023-08-08T13:03:28;10.18;;;4.03;;
29934;SDS011;19905;53.370;-6.314;2023-08-08T13:05:58;7.78;;;3.97;;
29934;SDS011;19905;53.370;-6.314;2023-08-08T13:08:26;7.72;;;3.65;;
29934;SDS011;19905;53.370;-6.314;2023-08-08T13:10:55;4.50;;;3.10;;
29934;SDS011;19905;53.370;-6.314;2023-08-08T13:13:24;7.15;;;4.25;;
29934;SDS011;19905;53.370;-6.314;2023-08-08T13:15:54;5.57;;;3.88;;
29934;SDS011;19905;53.370;-6.314;2023-08-08T13:18:23;7.35;;;3.75;;
29934;SDS011;19905;53.370;-6.314;2023-08-08T13:20:51;5.95;;;3.40;;
29934;SDS011;19905;53.370;-6.314;2023-08-08T13:23:20;7.60;;;3.53;;
29934;SDS011;19905;53.370;-6.314;2023-08-08T13:25:49;5.68;;;3.40;;
29934;SDS011;19905;53.370;-6.314;2023-08-08T13:28:18;5.05;;;3.45;;
29934;SDS011;19905;53.370;-6.314;2023-08-08T13:30:47;6.20;;;3.70;;
29934;SDS011;19905;53.370;-6.314;2023-08-08T13:33:19;7.30;;;4.15;;
29934;SDS011;19905;53.370;-6.314;2023-08-08T13:35:48;7.32;;;3.80;;
29934;SDS011;19905;53.370;-6.314;2023-08-08T13:38:19;7.50;;;3.88;;
29934;SDS011;19905;53.370;-6.314;2023-08-08T13:40:48;5.03;;;3.53;;
29934;SDS011;19905;53.370;-6.314;2023-08-08T13:43:16;6.47;;;4.00;;
29934;SDS011;19905;53.370;-6.314;2023-08-08T13:45:46;6.47;;;3.80;;
29934;SDS011;19905;53.370;-6.314;2023-08-08T13:48:15;7.65;;;3.20;;
29934;SDS011;19905;53.370;-6.314;2023-08-08T13:50:48;3.55;;;2.80;;
29934;SDS011;19905;53.370;-6.314;2023-08-08T13:53:18;4.93;;;2.75;;
29934;SDS011;19905;53.370;-6.314;2023-08-08T13:55:47;5.68;;;2.83;;
29934;SDS011;19905;53.370;-6.314;2023-08-08T13:58:16;4.05;;;2.30;;
29934;SDS011;19905;53.370;-6.314;2023-08-08T14:00:49;3.97;;;2.05;;
29934;SDS011;19905;53.370;-6.314;2023-08-08T14:03:19;6.15;;;2.17;;
29934;SDS011;19905;53.370;-6.314;2023-08-08T14:05:51;3.72;;;2.15;;
29934;SDS011;19905;53.370;-6.314;2023-08-08T14:08:21;6.63;;;2.90;;
29934;SDS011;19905;53.370;-6.314;2023-08-08T14:10:52;3.70;;;2.60;;
29934;SDS011;19905;53.370;-6.314;2023-08-08T14:13:21;6.43;;;2.60;;
29934;SDS011;19905;53.370;-6.314;2023-08-08T14:15:50;6.70;;;2.30;;
29934;SDS011;19905;53.370;-6.314;2023-08-08T14:18:19;5.32;;;2.10;;
29934;SDS011;19905;53.370;-6.314;2023-08-08T14:20:47;3.80;;;2.50;;
29934;SDS011;19905;53.370;-6.314;2023-08-08T14:23:17;8.15;;;2.22;;
29934;SDS011;19905;53.370;-6.314;2023-08-08T14:25:47;4.63;;;2.15;;
29934;SDS011;19905;53.370;-6.314;2023-08-08T14:28:16;4.68;;;1.98;;
29934;SDS011;19905;53.370;-6.314;2023-08-08T14:30:45;4.93;;;1.83;;
29934;SDS011;19905;53.370;-6.314;2023-08-08T14:33:15;4.05;;;1.80;;
29934;SDS011;19905;53.370;-6.314;2023-08-08T14:35:44;5.25;;;1.77;;
29934;SDS011;19905;53.370;-6.314;2023-08-08T14:38:15;4.40;;;1.73;;
29934;SDS011;19905;53.370;-6.314;2023-08-08T14:40:45;5.90;;;1.70;;
29934;SDS011;19905;53.370;-6.314;2023-08-08T14:43:14;4.90;;;1.58;;
29934;SDS011;19905;53.370;-6.314;2023-08-08T14:45:43;4.55;;;1.40;;
29934;SDS011;19905;53.370;-6.314;2023-08-08T14:48:14;3.45;;;1.20;;
29934;SDS011;19905;53.370;-6.314;2023-08-08T14:50:43;4.30;;;1.20;;
29934;SDS011;19905;53.370;-6.314;2023-08-08T14:53:12;4.70;;;1.25;;
29934;SDS011;19905;53.370;-6.314;2023-08-08T14:55:41;3.50;;;1.20;;
29934;SDS011;19905;53.370;-6.314;2023-08-08T14:58:12;4.45;;;2.30;;
29934;SDS011;19905;53.370;-6.314;2023-08-08T15:00:41;9.88;;;4.07;;
29934;SDS011;19905;53.370;-6.314;2023-08-08T15:03:10;6.47;;;3.80;;